createdAt,value
2019-05-06T00:00:55.838Z,11.49
2019-05-06T00:03:15.637Z,11.44
2019-05-06T00:05:44.972Z,11.42
2019-05-06T00:08:14.523Z,11.38
2019-05-06T00:10:44.747Z,11.36
2019-05-06T00:13:14.292Z,11.28
2019-05-06T00:15:43.771Z,11.15
2019-05-06T00:18:13.903Z,11.04
2019-05-06T00:20:43.896Z,10.94
2019-05-06T00:23:21.932Z,10.89
2019-05-06T00:26:10.228Z,10.83
2019-05-06T00:28:53.888Z,10.77
2019-05-06T00:31:24.020Z,10.70
2019-05-06T00:33:54.112Z,10.70
2019-05-06T00:36:23.904Z,10.72
2019-05-06T00:38:56.337Z,10.75
2019-05-06T00:41:30.839Z,10.71
2019-05-06T00:44:00.205Z,10.64
2019-05-06T00:46:29.563Z,10.55
2019-05-06T00:48:58.891Z,10.53
2019-05-06T00:51:28.237Z,10.47
2019-05-06T00:54:05.729Z,10.34
2019-05-06T00:56:35.167Z,10.24
2019-05-06T00:59:04.521Z,10.12
2019-05-06T01:01:34.497Z,10.03
2019-05-06T01:04:05.269Z,9.97
2019-05-06T01:06:37.154Z,9.92
2019-05-06T01:09:10.524Z,9.93
2019-05-06T01:11:39.879Z,9.93
2019-05-06T01:14:14.800Z,9.91
2019-05-06T01:16:44.142Z,9.90
2019-05-06T01:19:14.184Z,9.90
2019-05-06T01:21:44.791Z,9.90
2019-05-06T01:24:14.775Z,9.92
2019-05-06T01:26:45.601Z,9.92
2019-05-06T01:29:15.032Z,9.92
2019-05-06T01:31:46.108Z,9.95
2019-05-06T01:34:15.557Z,9.99
2019-05-06T01:36:44.910Z,9.98
2019-05-06T01:39:36.125Z,9.97
2019-05-06T01:42:27.370Z,9.90
2019-05-06T01:44:56.807Z,9.80
2019-05-06T01:47:26.173Z,9.69
2019-05-06T01:49:55.563Z,9.60
2019-05-06T01:52:24.975Z,9.53
2019-05-06T01:54:54.402Z,9.49
2019-05-06T01:57:24.433Z,9.45
2019-05-06T01:59:54.248Z,9.42
2019-05-06T02:02:24.024Z,9.37
2019-05-06T02:04:54.241Z,9.33
2019-05-06T02:07:24.269Z,9.34
2019-05-06T02:09:54.426Z,9.33
2019-05-06T02:12:24.554Z,9.28
2019-05-06T02:14:54.446Z,9.28
2019-05-06T02:17:24.021Z,9.29
2019-05-06T02:19:54.636Z,9.29
2019-05-06T02:22:40.601Z,9.30
2019-05-06T02:25:28.959Z,9.29
2019-05-06T02:27:58.326Z,9.26
2019-05-06T02:30:40.221Z,9.25
2019-05-06T02:33:27.042Z,9.25
2019-05-06T02:36:15.353Z,9.23
2019-05-06T02:38:48.049Z,9.09
2019-05-06T02:41:16.024Z,9.12
2019-05-06T02:43:46.050Z,9.14
2019-05-06T02:46:15.562Z,9.15
2019-05-06T02:49:16.172Z,9.11
2019-05-06T02:51:45.652Z,9.03
2019-05-06T02:54:15.073Z,8.90
2019-05-06T02:56:44.432Z,8.86
2019-05-06T02:59:13.782Z,8.86
2019-05-06T03:01:43.494Z,8.91
2019-05-06T03:04:13.315Z,8.95
2019-05-06T03:06:44.700Z,9.00
2019-05-06T03:09:14.097Z,9.06
2019-05-06T03:11:43.972Z,9.06
2019-05-06T03:14:14.062Z,9.06
2019-05-06T03:16:44.155Z,9.04
2019-05-06T03:19:13.739Z,9.03
2019-05-06T03:21:58.184Z,9.06
2019-05-06T03:24:33.868Z,9.09
2019-05-06T03:27:04.588Z,9.12
2019-05-06T03:29:34.337Z,9.15
2019-05-06T03:32:06.891Z,9.19
2019-05-06T03:34:57.850Z,9.21
2019-05-06T03:37:08.148Z,9.19
2019-05-06T03:39:36.871Z,9.15
2019-05-06T03:42:06.319Z,9.11
2019-05-06T03:44:37.382Z,9.07
2019-05-06T03:47:23.481Z,9.02
2019-05-06T03:49:54.690Z,8.93
2019-05-06T03:52:25.220Z,8.79
2019-05-06T03:54:55.362Z,8.78
2019-05-06T03:57:26.507Z,8.77
2019-05-06T03:59:56.272Z,8.79
2019-05-06T04:02:25.786Z,8.77
2019-05-06T04:04:56.799Z,8.75
2019-05-06T04:07:26.930Z,8.77
2019-05-06T04:09:56.604Z,8.75
2019-05-06T04:12:27.469Z,8.75
2019-05-06T04:14:57.191Z,8.71
2019-05-06T04:17:57.982Z,8.67
2019-05-06T04:20:43.600Z,8.61
2019-05-06T04:23:23.189Z,8.49
2019-05-06T04:26:13.552Z,8.43
2019-05-06T04:28:43.525Z,8.50
2019-05-06T04:31:13.401Z,8.58
2019-05-06T04:34:03.645Z,8.65
2019-05-06T04:36:23.713Z,8.66
2019-05-06T04:38:54.185Z,8.61
2019-05-06T04:41:26.763Z,8.61
2019-05-06T04:43:56.004Z,8.59
2019-05-06T04:46:25.483Z,8.58
2019-05-06T04:48:57.629Z,8.62
2019-05-06T04:51:27.188Z,8.65
2019-05-06T04:53:56.609Z,8.70
2019-05-06T04:56:25.963Z,8.69
2019-05-06T04:58:55.317Z,8.69
2019-05-06T05:01:24.635Z,8.71
2019-05-06T05:03:54.247Z,8.76
2019-05-06T05:06:23.691Z,8.82
2019-05-06T05:08:54.329Z,8.89
2019-05-06T05:11:57.738Z,8.95
2019-05-06T05:14:35.743Z,9.02
2019-05-06T05:17:22.389Z,8.95
2019-05-06T05:19:52.722Z,8.96
2019-05-06T05:22:22.098Z,9.06
2019-05-06T05:24:52.155Z,9.15
2019-05-06T05:27:22.089Z,9.22
2019-05-06T05:29:52.329Z,9.26
2019-05-06T05:32:22.582Z,9.29
2019-05-06T05:34:52.777Z,9.36
2019-05-06T05:37:23.324Z,9.39
2019-05-06T05:39:52.871Z,9.38
2019-05-06T05:42:28.743Z,9.37
2019-05-06T05:44:58.882Z,9.38
2019-05-06T05:47:29.295Z,9.41
2019-05-06T05:50:17.543Z,9.43
2019-05-06T05:52:46.912Z,9.46
2019-05-06T05:55:16.345Z,9.46
2019-05-06T05:57:45.732Z,9.52
2019-05-06T06:00:16.035Z,9.63
2019-05-06T06:02:46.097Z,9.72
2019-05-06T06:05:15.743Z,9.82
2019-05-06T06:07:45.250Z,9.91
2019-05-06T06:10:23.612Z,9.99
2019-05-06T06:12:54.069Z,10.13
2019-05-06T06:15:44.728Z,10.24
2019-05-06T06:18:33.364Z,10.31
2019-05-06T06:21:28.117Z,10.42
2019-05-06T06:24:02.671Z,10.56
2019-05-06T06:26:32.465Z,10.70
2019-05-06T06:29:03.256Z,10.88
2019-05-06T06:31:39.545Z,11.03
2019-05-06T06:34:18.290Z,11.24
2019-05-06T06:36:57.115Z,11.39
2019-05-06T06:39:32.707Z,11.51
2019-05-06T06:42:02.850Z,11.64
2019-05-06T06:44:34.192Z,11.76
2019-05-06T06:47:03.668Z,11.92
2019-05-06T06:49:33.049Z,12.07
2019-05-06T06:52:02.980Z,12.21
2019-05-06T06:54:32.965Z,12.35
2019-05-06T06:57:24.458Z,12.48
2019-05-06T07:00:08.797Z,12.58
2019-05-06T07:02:48.173Z,12.67
2019-05-06T07:05:28.443Z,12.72
2019-05-06T07:07:56.945Z,12.77
2019-05-06T07:10:44.650Z,12.86
2019-05-06T07:13:18.065Z,12.93
2019-05-06T07:15:48.079Z,12.88
2019-05-06T07:18:17.537Z,12.94
2019-05-06T07:21:09.979Z,13.03
2019-05-06T07:23:39.396Z,13.09
2019-05-06T07:26:12.209Z,13.15
2019-05-06T07:28:43.807Z,13.21
2019-05-06T07:31:22.771Z,13.29
2019-05-06T07:33:52.268Z,13.39
2019-05-06T07:36:23.590Z,13.48
2019-05-06T07:39:04.155Z,13.55
2019-05-06T07:41:46.496Z,13.63
2019-05-06T07:44:23.778Z,13.68
2019-05-06T07:47:23.947Z,13.63
2019-05-06T07:49:53.607Z,13.67
2019-05-06T07:52:23.194Z,13.70
2019-05-06T07:54:53.402Z,13.79
2019-05-06T07:57:26.199Z,13.89
2019-05-06T07:59:56.065Z,13.98
2019-05-06T08:02:25.617Z,14.07
2019-05-06T08:04:55.628Z,14.13
2019-05-06T08:07:26.703Z,14.20
2019-05-06T08:09:56.262Z,14.29
2019-05-06T08:12:27.162Z,14.38
2019-05-06T08:14:57.693Z,14.46
2019-05-06T08:17:37.638Z,14.56
2019-05-06T08:20:08.970Z,14.65
2019-05-06T08:22:56.650Z,14.73
2019-05-06T08:25:37.088Z,14.80
2019-05-06T08:28:06.730Z,14.84
2019-05-06T08:30:37.305Z,14.88
2019-05-06T08:33:07.013Z,14.94
2019-05-06T08:35:37.266Z,15.01
2019-05-06T08:38:07.825Z,15.03
2019-05-06T08:40:38.482Z,15.05
2019-05-06T08:43:07.968Z,15.10
2019-05-06T08:45:37.792Z,15.14
2019-05-06T08:48:08.843Z,15.15
2019-05-06T08:50:57.236Z,15.18
2019-05-06T08:53:49.164Z,15.24
2019-05-06T08:56:22.718Z,15.25
2019-05-06T08:58:53.833Z,15.25
2019-05-06T09:01:43.307Z,15.37
2019-05-06T09:04:16.268Z,15.38
2019-05-06T09:06:48.471Z,15.40
2019-05-06T09:09:18.050Z,15.51
2019-05-06T09:11:47.573Z,15.61
2019-05-06T09:14:23.609Z,15.65
2019-05-06T09:16:54.125Z,15.72
2019-05-06T09:19:23.845Z,15.74
2019-05-06T09:21:53.591Z,15.78
2019-05-06T09:24:23.331Z,15.80
2019-05-06T09:27:04.589Z,15.84
2019-05-06T09:29:46.731Z,15.90
2019-05-06T09:32:20.011Z,15.94
2019-05-06T09:34:54.369Z,15.96
2019-05-06T09:37:24.346Z,16.04
2019-05-06T09:39:53.941Z,16.14
2019-05-06T09:42:23.463Z,16.29
2019-05-06T09:44:54.191Z,16.44
2019-05-06T09:47:58.069Z,16.55
2019-05-06T09:50:50.127Z,16.63
2019-05-06T09:53:24.923Z,16.66
2019-05-06T09:56:22.890Z,16.80
2019-05-06T09:58:52.923Z,17.04
2019-05-06T10:01:22.655Z,17.13
2019-05-06T10:03:52.919Z,17.28
2019-05-06T10:06:22.414Z,17.44
2019-05-06T10:08:51.788Z,17.65
2019-05-06T10:11:22.293Z,17.83
2019-05-06T10:13:52.687Z,17.99
2019-05-06T10:16:22.123Z,17.91
2019-05-06T10:18:52.455Z,17.83
2019-05-06T10:21:23.001Z,17.70
2019-05-06T10:23:52.875Z,17.61
2019-05-06T10:26:23.436Z,17.43
2019-05-06T10:29:15.162Z,17.30
2019-05-06T10:31:49.234Z,17.32
2019-05-06T10:34:18.890Z,17.23
2019-05-06T10:37:14.627Z,17.27
2019-05-06T10:39:36.448Z,17.32
2019-05-06T10:42:13.095Z,17.20
2019-05-06T10:45:03.597Z,17.22
2019-05-06T10:47:33.160Z,17.29
2019-05-06T10:50:02.496Z,17.39
2019-05-06T10:52:48.368Z,17.66
2019-05-06T10:55:17.727Z,17.97
2019-05-06T10:57:47.664Z,18.22
2019-05-06T11:00:19.301Z,18.42
2019-05-06T11:03:14.406Z,18.63
2019-05-06T11:05:43.125Z,18.76
2019-05-06T11:08:12.334Z,18.60
2019-05-06T11:10:45.183Z,18.44
2019-05-06T11:13:13.154Z,18.33
2019-05-06T11:15:43.441Z,18.32
2019-05-06T11:18:13.726Z,18.30
2019-05-06T11:20:44.080Z,18.33
2019-05-06T11:23:14.439Z,18.35
2019-05-06T11:25:43.972Z,18.35
2019-05-06T11:28:34.915Z,18.21
2019-05-06T11:31:15.339Z,18.25
2019-05-06T11:34:09.593Z,18.02
2019-05-06T11:36:52.388Z,17.92
2019-05-06T11:39:23.264Z,18.05
2019-05-06T11:42:06.301Z,18.06
2019-05-06T11:44:24.249Z,18.14
2019-05-06T11:46:53.725Z,18.23
2019-05-06T11:49:23.470Z,18.34
2019-05-06T11:51:52.984Z,18.43
2019-05-06T11:54:24.452Z,18.36
2019-05-06T11:56:58.136Z,18.37
2019-05-06T11:59:24.809Z,18.36
2019-05-06T12:01:58.569Z,18.42
2019-05-06T12:04:27.934Z,18.52
2019-05-06T12:07:09.202Z,18.54
2019-05-06T12:09:28.766Z,18.59
2019-05-06T12:11:58.657Z,18.65
2019-05-06T12:14:28.261Z,18.61
2019-05-06T12:16:57.706Z,18.58
2019-05-06T12:19:27.329Z,18.47
2019-05-06T12:21:56.679Z,18.38
2019-05-06T12:24:26.144Z,18.35
2019-05-06T12:26:55.610Z,18.38
2019-05-06T12:29:25.144Z,18.33
2019-05-06T12:32:13.609Z,18.34
2019-05-06T12:34:43.176Z,18.25
2019-05-06T12:37:14.422Z,18.19
2019-05-06T12:39:49.301Z,18.15
2019-05-06T12:42:33.183Z,18.19
2019-05-06T12:45:23.154Z,18.24
2019-05-06T12:47:56.675Z,18.23
2019-05-06T12:50:26.054Z,18.35
2019-05-06T12:52:57.673Z,18.47
2019-05-06T12:55:26.744Z,18.63
2019-05-06T12:57:56.171Z,18.66
2019-05-06T13:00:27.338Z,18.54
2019-05-06T13:02:56.731Z,18.61
2019-05-06T13:05:26.179Z,18.63
2019-05-06T13:07:55.541Z,18.76
2019-05-06T13:10:24.914Z,18.92
2019-05-06T13:13:12.874Z,18.82
2019-05-06T13:15:43.477Z,18.82
2019-05-06T13:18:13.116Z,18.80
2019-05-06T13:20:50.042Z,19.07
2019-05-06T13:23:24.606Z,19.25
2019-05-06T13:25:49.464Z,19.39
2019-05-06T13:28:22.397Z,19.42
2019-05-06T13:30:53.151Z,19.51
2019-05-06T13:33:43.937Z,19.51
2019-05-06T13:36:13.339Z,19.61
2019-05-06T13:38:43.368Z,19.71
2019-05-06T13:41:12.972Z,19.73
2019-05-06T13:44:07.562Z,19.70
2019-05-06T13:46:40.925Z,19.61
2019-05-06T13:49:38.557Z,19.56
2019-05-06T13:52:12.990Z,19.46
2019-05-06T13:54:42.562Z,19.27
2019-05-06T13:57:12.741Z,19.28
2019-05-06T13:59:44.089Z,19.36
2019-05-06T14:02:34.037Z,19.51
2019-05-06T14:05:04.856Z,19.75
2019-05-06T14:07:34.947Z,19.72
2019-05-06T14:10:04.807Z,19.91
2019-05-06T14:12:36.765Z,19.62
2019-05-06T14:15:07.819Z,19.47
2019-05-06T14:17:37.390Z,19.44
2019-05-06T14:20:07.322Z,19.43
2019-05-06T14:22:36.749Z,19.26
2019-05-06T14:25:35.883Z,19.41
2019-05-06T14:28:12.384Z,19.62
2019-05-06T14:30:54.811Z,19.46
2019-05-06T14:33:24.176Z,19.29
2019-05-06T14:35:53.543Z,18.80
2019-05-06T14:38:24.649Z,18.92
2019-05-06T14:41:27.301Z,19.06
2019-05-06T14:43:56.421Z,19.16
2019-05-06T14:46:27.508Z,19.18
2019-05-06T14:48:56.894Z,19.19
2019-05-06T14:51:26.271Z,19.18
2019-05-06T14:53:55.876Z,19.28
2019-05-06T14:56:48.209Z,19.51
2019-05-06T14:59:17.929Z,19.13
2019-05-06T15:01:47.538Z,18.76
2019-05-06T15:04:17.058Z,18.75
2019-05-06T15:06:46.505Z,18.82
2019-05-06T15:09:15.979Z,18.75
2019-05-06T15:11:45.449Z,18.70
2019-05-06T15:14:14.916Z,18.66
2019-05-06T15:16:47.140Z,18.63
2019-05-06T15:19:16.548Z,18.70
2019-05-06T15:21:46.376Z,18.66
2019-05-06T15:24:15.776Z,18.95
2019-05-06T15:26:45.177Z,19.57
2019-05-06T15:29:14.550Z,20.09
2019-05-06T15:32:02.542Z,20.56
2019-05-06T15:34:39.433Z,21.05
2019-05-06T15:37:24.594Z,21.20
2019-05-06T15:39:55.144Z,20.96
2019-05-06T15:42:24.561Z,20.76
2019-05-06T15:44:54.837Z,20.47
2019-05-06T15:47:24.289Z,20.32
2019-05-06T15:49:54.083Z,20.09
2019-05-06T15:52:23.755Z,19.93
2019-05-06T15:54:53.543Z,19.70
2019-05-06T15:57:23.138Z,19.43
2019-05-06T15:59:53.161Z,19.34
2019-05-06T16:02:23.441Z,19.41
2019-05-06T16:04:53.338Z,19.52
2019-05-06T16:07:25.135Z,19.86
2019-05-06T16:09:55.476Z,19.75
2019-05-06T16:12:25.076Z,19.63
2019-05-06T16:14:54.553Z,19.25
2019-05-06T16:17:24.139Z,18.88
2019-05-06T16:19:53.618Z,18.75
2019-05-06T16:22:23.174Z,18.85
2019-05-06T16:24:57.116Z,18.89
2019-05-06T16:27:26.577Z,18.85
2019-05-06T16:29:58.945Z,18.98
2019-05-06T16:32:29.542Z,19.13
2019-05-06T16:34:59.024Z,19.16
2019-05-06T16:37:28.505Z,19.17
2019-05-06T16:39:57.971Z,18.88
2019-05-06T16:42:27.456Z,18.71
2019-05-06T16:44:57.356Z,18.59
2019-05-06T16:47:39.781Z,18.47
2019-05-06T16:50:13.169Z,18.43
2019-05-06T16:52:45.647Z,18.42
2019-05-06T16:56:13.154Z,18.10
2019-05-06T16:58:52.539Z,18.01
2019-05-06T17:01:22.209Z,18.01
2019-05-06T17:04:19.780Z,18.16
2019-05-06T17:06:52.545Z,18.65
2019-05-06T17:09:27.183Z,18.77
2019-05-06T17:11:54.464Z,18.68
2019-05-06T17:14:26.046Z,18.47
2019-05-06T17:16:56.253Z,18.37
2019-05-06T17:19:25.936Z,18.30
2019-05-06T17:21:55.421Z,18.22
2019-05-06T17:24:25.009Z,18.06
2019-05-06T17:27:03.355Z,17.99
2019-05-06T17:29:46.488Z,17.94
2019-05-06T17:32:36.890Z,17.84
2019-05-06T17:35:08.160Z,17.69
2019-05-06T17:38:02.968Z,17.64
2019-05-06T17:40:35.396Z,17.61
2019-05-06T17:43:05.068Z,17.66
2019-05-06T17:45:57.953Z,17.83
2019-05-06T17:48:42.241Z,17.81
2019-05-06T17:51:13.537Z,17.49
2019-05-06T17:53:46.467Z,17.39
2019-05-06T17:56:15.897Z,17.82
2019-05-06T17:58:45.358Z,18.28
2019-05-06T18:01:16.760Z,18.51
2019-05-06T18:03:46.186Z,18.80
2019-05-06T18:06:15.660Z,18.99
2019-05-06T18:08:46.107Z,19.20
2019-05-06T18:11:17.286Z,19.23
2019-05-06T18:13:46.642Z,19.20
2019-05-06T18:16:16.255Z,19.18
2019-05-06T18:18:45.813Z,19.26
2019-05-06T18:21:15.249Z,19.20
2019-05-06T18:23:44.671Z,19.11
2019-05-06T18:26:14.261Z,19.06
2019-05-06T18:28:44.496Z,19.05
2019-05-06T18:31:14.008Z,18.85
2019-05-06T18:33:43.517Z,18.62
2019-05-06T18:36:13.128Z,18.43
2019-05-06T18:38:42.529Z,18.22
2019-05-06T18:41:12.179Z,18.06
2019-05-06T18:43:42.246Z,17.91
2019-05-06T18:46:12.372Z,17.72
2019-05-06T18:48:42.701Z,17.56
2019-05-06T18:51:12.649Z,17.39
2019-05-06T18:53:42.300Z,17.21
2019-05-06T18:56:12.686Z,17.09
2019-05-06T18:58:43.054Z,16.99
2019-05-06T19:01:13.358Z,16.86
2019-05-06T19:03:52.593Z,16.77
2019-05-06T19:06:23.194Z,16.70
2019-05-06T19:09:02.558Z,16.59
2019-05-06T19:11:32.756Z,16.54
2019-05-06T19:14:02.444Z,16.50
2019-05-06T19:16:48.259Z,16.47
2019-05-06T19:19:05.873Z,16.48
2019-05-06T19:21:34.469Z,16.44
2019-05-06T19:24:03.946Z,16.40
2019-05-06T19:26:33.500Z,16.36
2019-05-06T19:29:04.634Z,16.32
2019-05-06T19:31:35.917Z,16.27
2019-05-06T19:34:05.420Z,16.26
2019-05-06T19:36:35.020Z,16.23
2019-05-06T19:39:05.523Z,16.22
2019-05-06T19:41:34.944Z,16.21
2019-05-06T19:44:04.524Z,16.17
2019-05-06T19:46:33.888Z,16.13
2019-05-06T19:49:03.355Z,16.11
2019-05-06T19:51:33.076Z,16.07
2019-05-06T19:54:02.943Z,16.04
2019-05-06T19:56:32.366Z,16.02
2019-05-06T19:59:02.163Z,16.00
2019-05-06T20:04:02.539Z,15.95
2019-05-06T20:06:55.212Z,15.93
2019-05-06T20:09:46.430Z,15.94
2019-05-06T20:12:39.008Z,15.92
2019-05-06T20:15:26.659Z,15.89
2019-05-06T20:17:56.010Z,15.88
2019-05-06T20:20:25.447Z,15.80
2019-05-06T20:22:54.826Z,15.83
2019-05-06T20:25:24.212Z,15.86
2019-05-06T20:27:53.618Z,15.87
2019-05-06T20:30:23.004Z,15.88
2019-05-06T20:32:52.453Z,15.87
2019-05-06T20:35:22.490Z,15.89
2019-05-06T20:37:53.444Z,15.86
2019-05-06T20:40:23.272Z,15.86
2019-05-06T20:42:53.127Z,15.86
2019-05-06T20:45:22.588Z,15.84
2019-05-06T20:47:52.620Z,15.83
2019-05-06T20:50:22.684Z,15.81
2019-05-06T20:52:52.241Z,15.79
2019-05-06T20:55:22.903Z,15.77
2019-05-06T20:57:52.994Z,15.73
2019-05-06T21:00:23.044Z,15.68
2019-05-06T21:02:53.443Z,15.67
2019-05-06T21:05:23.115Z,15.61
2019-05-06T21:07:52.759Z,15.54
2019-05-06T21:10:22.233Z,15.49
2019-05-06T21:12:53.257Z,15.46
2019-05-06T21:15:23.076Z,15.43
2019-05-06T21:17:52.696Z,15.38
2019-05-06T21:20:22.081Z,15.34
2019-05-06T21:22:52.779Z,15.33
2019-05-06T21:25:22.667Z,15.30
2019-05-06T21:27:53.212Z,15.31
2019-05-06T21:30:23.066Z,15.30
2019-05-06T21:32:52.480Z,15.29
2019-05-06T21:35:22.292Z,15.28
2019-05-06T21:37:52.923Z,15.25
2019-05-06T21:40:22.440Z,15.24
2019-05-06T21:42:51.813Z,15.22
2019-05-06T21:45:22.172Z,15.19
2019-05-06T21:47:52.997Z,15.17
2019-05-06T21:50:22.936Z,15.11
2019-05-06T21:52:52.347Z,15.06
2019-05-06T21:55:22.944Z,15.02
2019-05-06T21:57:53.071Z,14.99
2019-05-06T22:00:33.456Z,14.96
2019-05-06T22:03:02.938Z,14.93
2019-05-06T22:05:32.410Z,14.88
2019-05-06T22:08:02.148Z,14.83
2019-05-06T22:10:32.505Z,14.77
2019-05-06T22:13:02.133Z,14.73
2019-05-06T22:15:32.414Z,14.71
2019-05-06T22:18:02.603Z,14.68
2019-05-06T22:20:34.726Z,14.67
2019-05-06T22:23:04.094Z,14.65
2019-05-06T22:25:33.475Z,14.61
2019-05-06T22:28:02.877Z,14.56
2019-05-06T22:30:32.843Z,14.54
2019-05-06T22:33:03.653Z,14.52
2019-05-06T22:35:33.079Z,14.50
2019-05-06T22:38:02.929Z,14.49
2019-05-06T22:40:32.835Z,14.47
2019-05-06T22:43:03.162Z,14.43
2019-05-06T22:45:33.099Z,14.39
2019-05-06T22:48:04.547Z,14.35
2019-05-06T22:50:33.672Z,14.33
2019-05-06T22:53:03.046Z,14.29
2019-05-06T22:55:32.917Z,14.26
2019-05-06T22:58:02.618Z,14.24
2019-05-06T23:00:33.657Z,14.22
2019-05-06T23:03:07.000Z,14.23
2019-05-06T23:05:36.425Z,14.23
2019-05-06T23:08:05.901Z,14.26
2019-05-06T23:10:35.293Z,14.22
2019-05-06T23:13:04.694Z,14.21
2019-05-06T23:15:34.308Z,14.17
2019-05-06T23:18:03.747Z,14.15
2019-05-06T23:20:33.147Z,14.12
2019-05-06T23:23:04.735Z,14.10
2019-05-06T23:25:33.696Z,14.10
2019-05-06T23:28:03.115Z,14.07
2019-05-06T23:30:33.388Z,14.08
2019-05-06T23:33:03.142Z,14.07
2019-05-06T23:35:32.473Z,14.03
2019-05-06T23:38:37.535Z,14.02
2019-05-06T23:41:42.639Z,14.03
2019-05-06T23:44:47.389Z,13.83
2019-05-06T23:47:53.147Z,13.71
2019-05-06T23:50:58.048Z,13.67
2019-05-06T23:54:03.187Z,13.60
2019-05-06T23:56:44.153Z,13.55
2019-05-06T23:59:15.507Z,13.48
